createdAt,value
2022-10-05T00:33:49.128Z,9.711658
2022-10-05T00:34:49.123Z,9.711623
2022-10-05T00:35:49.113Z,9.711664
2022-10-05T00:36:49.393Z,9.711679
2022-10-05T00:37:49.090Z,9.711647
2022-10-05T00:38:49.086Z,9.711691
2022-10-05T00:39:49.085Z,9.711668
2022-10-05T00:40:49.077Z,9.711771
2022-10-05T00:41:49.061Z,9.711874
2022-10-05T00:42:49.101Z,9.711918
2022-10-05T00:43:49.055Z,9.711843
2022-10-05T00:44:49.038Z,9.711736
2022-10-05T00:45:49.131Z,9.711741
2022-10-05T00:46:49.190Z,9.711572
2022-10-05T00:47:49.015Z,9.711574
2022-10-05T00:48:49.007Z,9.711591
2022-10-05T00:49:49.003Z,9.711566
2022-10-05T00:50:49.017Z,9.711375
2022-10-05T00:51:48.979Z,9.711637
2022-10-05T00:52:48.976Z,9.711643
2022-10-05T00:53:49.008Z,9.711562
2022-10-05T00:54:48.964Z,9.711699
2022-10-05T00:55:48.973Z,9.711709
2022-10-05T00:56:49.103Z,9.711652
2022-10-05T00:57:48.952Z,9.711684
2022-10-05T00:58:48.937Z,9.711659
2022-10-05T00:59:48.912Z,9.711553
2022-10-05T01:00:49.937Z,9.711548
2022-10-05T01:01:48.978Z,9.711622
2022-10-05T01:02:48.963Z,9.711763
2022-10-05T01:03:48.891Z,9.711992
2022-10-05T01:04:48.883Z,9.711833
2022-10-05T01:05:48.873Z,9.711761
2022-10-05T01:06:48.963Z,9.711591
2022-10-05T01:07:48.863Z,9.711565
2022-10-05T01:08:48.851Z,9.711836
2022-10-05T01:09:48.844Z,9.711963
2022-10-05T01:10:48.856Z,9.712000
2022-10-05T01:11:48.848Z,9.712029
2022-10-05T01:12:48.831Z,9.711845
2022-10-05T01:13:48.803Z,9.711821
2022-10-05T01:14:49.814Z,9.712148
2022-10-05T01:15:48.795Z,9.711679
2022-10-05T01:16:49.285Z,9.712099
2022-10-05T01:17:48.784Z,9.712006
2022-10-05T01:18:48.790Z,9.711763
2022-10-05T01:19:48.778Z,9.711848
2022-10-05T01:20:48.756Z,9.711894
2022-10-05T01:21:48.752Z,9.711791
2022-10-05T01:22:48.753Z,9.711732
2022-10-05T01:23:48.739Z,9.711612
2022-10-05T01:24:48.728Z,9.711880
2022-10-05T01:25:48.711Z,9.711784
2022-10-05T01:26:49.064Z,9.711855
2022-10-05T01:27:51.502Z,9.711868
2022-10-05T01:28:48.702Z,9.711926
2022-10-05T01:29:48.680Z,9.711697
2022-10-05T01:30:48.674Z,9.711810
2022-10-05T01:31:48.732Z,9.711601
2022-10-05T01:32:48.662Z,9.711557
2022-10-05T01:33:48.682Z,9.711802
2022-10-05T01:34:48.648Z,9.711777
2022-10-05T01:35:48.632Z,9.711896
2022-10-05T01:36:49.053Z,9.711643
2022-10-05T01:37:48.654Z,9.711732
2022-10-05T01:38:48.612Z,9.711977
2022-10-05T01:39:48.604Z,9.711842
2022-10-05T01:40:48.596Z,9.711800
2022-10-05T01:41:48.588Z,9.712166
2022-10-05T01:42:48.597Z,9.712131
2022-10-05T01:43:48.611Z,9.712181
2022-10-05T01:44:48.576Z,9.712343
2022-10-05T01:45:49.455Z,9.712234
2022-10-05T01:46:48.983Z,9.712298
2022-10-05T01:47:48.540Z,9.712373
2022-10-05T01:48:48.530Z,9.712489
2022-10-05T01:49:48.532Z,9.712434
2022-10-05T01:50:48.519Z,9.712217
2022-10-05T01:51:48.515Z,9.712001
2022-10-05T01:56:55.868Z,9.711196
2022-10-05T01:57:55.859Z,9.711863
2022-10-05T01:58:55.848Z,9.712025
2022-10-05T01:59:55.843Z,9.711088
2022-10-05T02:00:55.873Z,9.711889
2022-10-05T02:01:55.900Z,9.711181
2022-10-05T02:02:55.820Z,9.712029
2022-10-05T02:03:55.811Z,9.712029
2022-10-05T02:05:03.286Z,9.712029
2022-10-05T02:05:57.816Z,9.712029
2022-10-05T02:06:55.799Z,9.712029
2022-10-05T02:07:55.788Z,9.711675
2022-10-05T02:08:55.776Z,9.712182
2022-10-05T02:09:55.769Z,9.711822
2022-10-05T02:10:55.769Z,9.711113
2022-10-05T02:11:55.760Z,9.711340
2022-10-05T02:12:55.759Z,9.711652
2022-10-05T02:13:55.745Z,9.711658
2022-10-05T02:14:55.729Z,9.711578
2022-10-05T02:15:55.730Z,9.711514
2022-10-05T02:16:55.717Z,9.711192
2022-10-05T02:17:55.697Z,9.711173
2022-10-05T02:18:56.239Z,9.711549
2022-10-05T02:19:55.684Z,9.711661
2022-10-05T02:20:55.678Z,9.711479
2022-10-05T02:21:55.691Z,9.711309
2022-10-05T02:22:55.666Z,9.711359
2022-10-05T02:23:55.656Z,9.711371
2022-10-05T02:24:55.636Z,9.711520
2022-10-05T02:25:55.642Z,9.711489
2022-10-05T02:26:55.627Z,9.711470
2022-10-05T02:27:55.662Z,9.711423
2022-10-05T02:28:55.615Z,9.711378
2022-10-05T02:29:55.615Z,9.711380
2022-10-05T02:30:55.593Z,9.711413
2022-10-05T02:31:55.626Z,9.711325
2022-10-05T02:32:55.573Z,9.711315
2022-10-05T02:33:56.170Z,9.711493
2022-10-05T02:34:55.570Z,9.711325
2022-10-05T02:35:57.239Z,9.711489
2022-10-05T02:36:55.542Z,9.711626
2022-10-05T02:37:55.533Z,9.711403
2022-10-05T02:38:55.533Z,9.711435
2022-10-05T02:39:55.519Z,9.711388
2022-10-05T02:40:55.509Z,9.711649
2022-10-05T02:41:55.495Z,9.711282
2022-10-05T02:42:55.510Z,9.711532
2022-10-05T02:43:55.508Z,9.711725
2022-10-05T02:44:56.168Z,9.711719
2022-10-05T02:45:55.525Z,9.711767
2022-10-05T02:46:57.485Z,9.711542
2022-10-05T02:47:57.258Z,9.711441
2022-10-05T02:48:55.452Z,9.711471
2022-10-05T02:49:55.437Z,9.711699
2022-10-05T02:50:55.433Z,9.711592
2022-10-05T02:51:55.421Z,9.711623
2022-10-05T02:52:55.424Z,9.711542
2022-10-05T02:53:55.414Z,9.711424
2022-10-05T02:54:55.407Z,9.711618
2022-10-05T02:55:55.396Z,9.711567
2022-10-05T02:56:55.395Z,9.711544
2022-10-05T02:57:55.385Z,9.711589
2022-10-05T02:58:55.365Z,9.711612
2022-10-05T02:59:55.359Z,9.711617
2022-10-05T03:00:55.509Z,9.711604
2022-10-05T03:01:55.377Z,9.711622
2022-10-05T03:02:55.341Z,9.711564
2022-10-05T03:03:55.316Z,9.711551
2022-10-05T03:04:55.313Z,9.711533
2022-10-05T03:05:55.317Z,9.711571
2022-10-05T03:06:56.248Z,9.711569
2022-10-05T03:07:55.285Z,9.711468
2022-10-05T03:08:55.279Z,9.711454
2022-10-05T03:09:58.883Z,9.711518
2022-10-05T03:10:57.274Z,9.711674
2022-10-05T03:11:55.260Z,9.711647
2022-10-05T03:12:55.257Z,9.711598
2022-10-05T03:13:55.236Z,9.711596
2022-10-05T03:14:55.242Z,9.711568
2022-10-05T03:15:55.298Z,9.711570
2022-10-05T03:16:55.216Z,9.711608
2022-10-05T03:17:55.214Z,9.711699
2022-10-05T03:18:55.349Z,9.711629
2022-10-05T03:19:55.195Z,9.711587
2022-10-05T03:20:55.175Z,9.711638
2022-10-05T03:21:55.169Z,9.711688
2022-10-05T03:22:55.160Z,9.711704
2022-10-05T03:23:55.156Z,9.711690
2022-10-05T03:24:55.167Z,9.711678
2022-10-05T03:25:55.756Z,9.711671
2022-10-05T03:26:55.129Z,9.711674
2022-10-05T03:27:55.175Z,9.711709
2022-10-05T03:28:55.109Z,9.711660
2022-10-05T03:29:55.097Z,9.711651
2022-10-05T03:30:55.187Z,9.711651
2022-10-05T03:31:55.085Z,9.711669
2022-10-05T03:32:55.114Z,9.711642
2022-10-05T03:33:55.072Z,9.711637
2022-10-05T03:34:55.121Z,9.711701
2022-10-05T03:35:55.074Z,9.711722
2022-10-05T03:36:55.047Z,9.711649
2022-10-05T03:37:55.089Z,9.711748
2022-10-05T03:38:55.045Z,9.711720
2022-10-05T03:39:55.026Z,9.711700
2022-10-05T03:40:55.020Z,9.711729
2022-10-05T03:41:55.011Z,9.711686
2022-10-05T03:42:55.012Z,9.711745
2022-10-05T03:43:55.004Z,9.711789
2022-10-05T03:44:54.989Z,9.711789
2022-10-05T03:45:55.046Z,9.711722
2022-10-05T03:46:54.977Z,9.711767
2022-10-05T03:48:01.126Z,9.711844
2022-10-05T03:48:56.954Z,9.711864
2022-10-05T03:49:54.954Z,9.711832
2022-10-05T03:50:54.947Z,9.711848
2022-10-05T03:51:54.936Z,9.711887
2022-10-05T03:52:54.923Z,9.711802
2022-10-05T03:53:54.912Z,9.712003
2022-10-05T03:54:54.914Z,9.711802
2022-10-05T03:55:54.909Z,9.711915
2022-10-05T03:56:54.921Z,9.711924
2022-10-05T03:57:54.888Z,9.711943
2022-10-05T03:58:54.880Z,9.711745
2022-10-05T03:59:54.877Z,9.711741
2022-10-05T04:00:54.861Z,9.711862
2022-10-05T04:01:54.946Z,9.711874
2022-10-05T04:02:54.848Z,9.711886
2022-10-05T04:03:54.836Z,9.711916
2022-10-05T04:04:54.831Z,9.712003
2022-10-05T04:05:54.822Z,9.712053
2022-10-05T04:06:54.830Z,9.712042
2022-10-05T04:07:54.804Z,9.711816
2022-10-05T04:08:54.790Z,9.711748
2022-10-05T04:09:54.782Z,9.711896
2022-10-05T04:10:54.773Z,9.711836
2022-10-05T04:11:54.782Z,9.711856
2022-10-05T04:12:54.766Z,9.711724
2022-10-05T04:13:54.755Z,9.712107
2022-10-05T04:14:54.746Z,9.711922
2022-10-05T04:15:54.806Z,9.711846
2022-10-05T04:16:54.765Z,9.711807
2022-10-05T04:17:54.718Z,9.711890
2022-10-05T04:18:54.721Z,9.711945
2022-10-05T04:19:54.732Z,9.711887
2022-10-05T04:20:54.710Z,9.712020
2022-10-05T04:21:54.699Z,9.711960
2022-10-05T04:22:54.690Z,9.711944
2022-10-05T04:23:54.682Z,9.711827
2022-10-05T04:24:54.666Z,9.711812
2022-10-05T04:25:54.664Z,9.712047
2022-10-05T04:26:54.674Z,9.712069
2022-10-05T04:27:54.691Z,9.711819
2022-10-05T04:28:54.637Z,9.711555
2022-10-05T04:29:54.680Z,9.711870
2022-10-05T04:30:54.621Z,9.711812
2022-10-05T04:31:54.605Z,9.711770
2022-10-05T04:32:54.607Z,9.711703
2022-10-05T04:33:54.590Z,9.711682
2022-10-05T04:34:54.594Z,9.711684
2022-10-05T04:35:54.582Z,9.711672
2022-10-05T04:36:54.575Z,9.711668
2022-10-05T04:37:54.560Z,9.711657
2022-10-05T04:38:54.550Z,9.711661
2022-10-05T04:39:54.578Z,9.711653
2022-10-05T04:40:54.544Z,9.711662
2022-10-05T04:41:54.532Z,9.711673
2022-10-05T04:42:54.527Z,9.711678
2022-10-05T04:43:54.522Z,9.711657
2022-10-05T04:44:58.970Z,9.711700
2022-10-05T04:45:55.504Z,9.711637
2022-10-05T04:46:55.269Z,9.711660
2022-10-05T04:47:54.493Z,9.711691
2022-10-05T04:48:54.476Z,9.711691
2022-10-05T04:49:54.465Z,9.711619
2022-10-05T04:50:54.456Z,9.711636
2022-10-05T04:51:54.463Z,9.711669
2022-10-05T04:52:54.440Z,9.711708
2022-10-05T04:53:54.429Z,9.711678
2022-10-05T04:54:54.491Z,9.711623
2022-10-05T04:55:54.417Z,9.711672
2022-10-05T04:56:54.438Z,9.711702
2022-10-05T04:57:54.408Z,9.711647
2022-10-05T04:58:54.387Z,9.711615
2022-10-05T04:59:54.384Z,9.711685
2022-10-05T05:00:54.412Z,9.711597
2022-10-05T05:01:54.380Z,9.711711
2022-10-05T05:02:54.363Z,9.711689
2022-10-05T05:03:54.373Z,9.711599
2022-10-05T05:04:54.347Z,9.711645
2022-10-05T05:06:15.933Z,9.711724
2022-10-05T05:06:56.349Z,9.711738
2022-10-05T05:07:54.338Z,9.711760
2022-10-05T05:08:54.316Z,9.711720
2022-10-05T05:09:54.318Z,9.711662
2022-10-05T05:10:54.307Z,9.711628
2022-10-05T05:11:54.293Z,9.711648
2022-10-05T05:12:54.291Z,9.711643
2022-10-05T05:13:54.277Z,9.711684
2022-10-05T05:14:54.278Z,9.711691
2022-10-05T05:15:54.322Z,9.711639
2022-10-05T05:16:54.253Z,9.711525
2022-10-05T05:17:54.248Z,9.711555
2022-10-05T05:18:54.246Z,9.711684
2022-10-05T05:19:54.236Z,9.711691
2022-10-05T05:20:54.235Z,9.711639
2022-10-05T05:21:54.213Z,9.711749
2022-10-05T05:22:54.203Z,9.711609
2022-10-05T05:23:54.195Z,9.711658
2022-10-05T05:24:54.190Z,9.711682
2022-10-05T05:25:54.230Z,9.711658
2022-10-05T05:26:54.183Z,9.711659
2022-10-05T05:27:54.203Z,9.711650
2022-10-05T05:28:54.160Z,9.711683
2022-10-05T05:29:54.149Z,9.711632
2022-10-05T05:30:54.184Z,9.711602
2022-10-05T05:31:54.160Z,9.711644
2022-10-05T05:32:54.134Z,9.711592
2022-10-05T05:33:54.127Z,9.711558
2022-10-05T05:34:54.121Z,9.711634
2022-10-05T05:35:54.103Z,9.711687
2022-10-05T05:36:54.723Z,9.711625
2022-10-05T05:37:55.093Z,9.711590
2022-10-05T05:38:54.075Z,9.711724
2022-10-05T05:39:54.068Z,9.711663
2022-10-05T05:40:54.080Z,9.711637
2022-10-05T05:41:54.073Z,9.711645
2022-10-05T05:42:54.044Z,9.711607
2022-10-05T05:43:54.048Z,9.711550
2022-10-05T05:44:54.036Z,9.711612
2022-10-05T05:45:54.041Z,9.711551
2022-10-05T05:47:05.662Z,9.711670
2022-10-05T05:47:56.775Z,9.711673
2022-10-05T05:48:54.003Z,9.711610
2022-10-05T05:49:54.076Z,9.711671
2022-10-05T05:50:53.992Z,9.711610
2022-10-05T05:51:54.016Z,9.711672
2022-10-05T05:52:54.000Z,9.711750
2022-10-05T05:53:53.958Z,9.711759
2022-10-05T05:54:53.988Z,9.711588
2022-10-05T05:55:53.943Z,9.711637
2022-10-05T05:56:53.953Z,9.711622
2022-10-05T05:57:53.939Z,9.711520
2022-10-05T05:58:53.928Z,9.711595
2022-10-05T05:59:54.912Z,9.711661
2022-10-05T06:00:53.914Z,9.711575
2022-10-05T06:01:54.025Z,9.711626
2022-10-05T06:02:53.998Z,9.711509
2022-10-05T06:03:53.925Z,9.711541
2022-10-05T06:04:53.877Z,9.711590
2022-10-05T06:05:53.886Z,9.711602
2022-10-05T06:07:30.369Z,9.711694
2022-10-05T06:07:53.877Z,9.711606
2022-10-05T06:08:53.839Z,9.711615
2022-10-05T06:09:53.866Z,9.711564
2022-10-05T06:10:53.820Z,9.711564
2022-10-05T06:11:53.813Z,9.711530
2022-10-05T06:12:56.423Z,9.711637
2022-10-05T06:13:53.802Z,9.711580
2022-10-05T06:14:53.801Z,9.711580
2022-10-05T06:15:53.862Z,9.711508
2022-10-05T06:16:53.897Z,9.711607
2022-10-05T06:17:53.783Z,9.711792
2022-10-05T06:18:53.765Z,9.711807
2022-10-05T06:19:53.753Z,9.711469
2022-10-05T06:20:53.787Z,9.711476
2022-10-05T06:21:53.746Z,9.711574
2022-10-05T06:22:53.742Z,9.711578
2022-10-05T06:23:53.715Z,9.711519
2022-10-05T06:24:53.706Z,9.711551
2022-10-05T06:25:53.715Z,9.711556
2022-10-05T06:26:53.697Z,9.711575
2022-10-05T06:27:54.373Z,9.711669
2022-10-05T06:28:53.684Z,9.711702
2022-10-05T06:29:53.678Z,9.711634
2022-10-05T06:30:53.675Z,9.711673
2022-10-05T06:31:58.568Z,9.711618
2022-10-05T06:32:55.663Z,9.711643
2022-10-05T06:33:53.635Z,9.711657
2022-10-05T06:34:53.625Z,9.711617
2022-10-05T06:35:53.619Z,9.711675
2022-10-05T06:36:53.607Z,9.711629
2022-10-05T06:37:53.647Z,9.711641
2022-10-05T06:38:53.603Z,9.711658
2022-10-05T06:39:55.472Z,9.711676
2022-10-05T06:40:54.586Z,9.711675
2022-10-05T06:41:53.569Z,9.711678
2022-10-05T06:42:53.567Z,9.711705
2022-10-05T06:43:53.553Z,9.711778
2022-10-05T06:44:53.559Z,9.711756
2022-10-05T06:45:53.622Z,9.711667
2022-10-05T06:46:53.551Z,9.711683
2022-10-05T06:47:53.530Z,9.711705
2022-10-05T06:48:53.511Z,9.711707
2022-10-05T06:49:54.251Z,9.711695
2022-10-05T06:50:53.495Z,9.711628
2022-10-05T06:51:53.495Z,9.711711
2022-10-05T06:52:53.477Z,9.711738
2022-10-05T06:53:53.480Z,9.711735
2022-10-05T06:54:53.460Z,9.711763
2022-10-05T06:55:53.464Z,9.711852
2022-10-05T06:56:53.449Z,9.711881
2022-10-05T06:57:53.456Z,9.711781
2022-10-05T06:58:53.433Z,9.711886
2022-10-05T06:59:53.419Z,9.711830
2022-10-05T07:00:53.447Z,9.711907
2022-10-05T07:01:54.448Z,9.711845
2022-10-05T07:02:53.421Z,9.711801
2022-10-05T07:03:53.388Z,9.711853
2022-10-05T07:04:53.377Z,9.711843
2022-10-05T07:05:53.371Z,9.711784
2022-10-05T07:06:53.365Z,9.711750
2022-10-05T07:07:53.405Z,9.711596
2022-10-05T07:08:53.347Z,9.711706
2022-10-05T07:09:53.344Z,9.711904
2022-10-05T07:10:53.334Z,9.711842
2022-10-05T07:11:58.462Z,9.711905
2022-10-05T07:12:55.313Z,9.711815
2022-10-05T07:13:54.307Z,9.711845
2022-10-05T07:14:53.297Z,9.711657
2022-10-05T07:15:54.876Z,9.711779
2022-10-05T07:16:54.380Z,9.711666
2022-10-05T07:17:53.279Z,9.711666
2022-10-05T07:18:53.871Z,9.711820
2022-10-05T07:19:53.268Z,9.711770
2022-10-05T07:20:53.251Z,9.711862
2022-10-05T07:21:53.252Z,9.711874
2022-10-05T07:22:53.243Z,9.711686
2022-10-05T07:23:53.238Z,9.711711
2022-10-05T07:24:53.236Z,9.711896
2022-10-05T07:25:53.213Z,9.711902
2022-10-05T07:26:53.228Z,9.711902
2022-10-05T07:27:53.300Z,9.711764
2022-10-05T07:28:53.196Z,9.711762
2022-10-05T07:29:53.188Z,9.711808
2022-10-05T07:30:53.198Z,9.711995
2022-10-05T07:31:53.160Z,9.711819
2022-10-05T07:32:53.162Z,9.711765
2022-10-05T07:33:53.156Z,9.712120
2022-10-05T07:34:53.133Z,9.712116
2022-10-05T07:35:53.134Z,9.711976
2022-10-05T07:36:55.026Z,9.711788
2022-10-05T07:37:54.110Z,9.711665
2022-10-05T07:38:53.117Z,9.711630
2022-10-05T07:40:00.447Z,9.711930
2022-10-05T07:40:55.095Z,9.711817
2022-10-05T07:41:53.081Z,9.711917
2022-10-05T07:42:53.085Z,9.711893
2022-10-05T07:44:12.598Z,9.712128
2022-10-05T07:44:55.262Z,9.712054
2022-10-05T07:45:53.114Z,9.711721
2022-10-05T07:46:53.660Z,9.711668
2022-10-05T07:47:54.306Z,9.711686
2022-10-05T07:48:53.050Z,9.711999
2022-10-05T07:49:54.093Z,9.712049
2022-10-05T07:50:53.028Z,9.711965
2022-10-05T07:51:53.003Z,9.712029
2022-10-05T07:52:52.987Z,9.711782
2022-10-05T07:53:53.813Z,9.711676
2022-10-05T07:54:55.877Z,9.711741
2022-10-05T07:55:53.131Z,9.711805
2022-10-05T07:56:53.156Z,9.711711
2022-10-05T07:57:52.980Z,9.711695
2022-10-05T07:58:52.943Z,9.711724
2022-10-05T07:59:52.934Z,9.711686
2022-10-05T08:00:52.936Z,9.711679
2022-10-05T08:01:53.014Z,9.711674
2022-10-05T08:02:52.964Z,9.711653
2022-10-05T08:03:52.901Z,9.711598
2022-10-05T08:04:52.908Z,9.711631
2022-10-05T08:05:52.891Z,9.711647
2022-10-05T08:06:52.876Z,9.711682
2022-10-05T08:07:52.907Z,9.711655
2022-10-05T08:08:52.874Z,9.711653
2022-10-05T08:09:52.851Z,9.711624
2022-10-05T08:10:52.850Z,9.711693
2022-10-05T08:11:52.841Z,9.711747
2022-10-05T08:12:52.856Z,9.711669
2022-10-05T08:13:53.793Z,9.711637
2022-10-05T08:14:53.805Z,9.711706
2022-10-05T08:15:53.932Z,9.711699
2022-10-05T08:16:52.806Z,9.711645
2022-10-05T08:17:52.782Z,9.711688
2022-10-05T08:18:52.774Z,9.711677
2022-10-05T08:19:52.768Z,9.711747
2022-10-05T08:20:52.789Z,9.711698
2022-10-05T08:21:52.754Z,9.711663
2022-10-05T08:22:52.779Z,9.711647
2022-10-05T08:23:52.783Z,9.711661
2022-10-05T08:24:52.727Z,9.711662
2022-10-05T08:25:52.760Z,9.711758
2022-10-05T08:26:52.717Z,9.711836
2022-10-05T08:27:52.831Z,9.711736
2022-10-05T08:28:52.695Z,9.711732
2022-10-05T08:29:52.690Z,9.711752
2022-10-05T08:30:52.713Z,9.711714
2022-10-05T08:31:52.682Z,9.711761
2022-10-05T08:32:52.666Z,9.711736
2022-10-05T08:33:52.651Z,9.711733
2022-10-05T08:34:53.276Z,9.711727
2022-10-05T08:35:52.647Z,9.711749
2022-10-05T08:36:54.000Z,9.711684
2022-10-05T08:37:53.640Z,9.711710
2022-10-05T08:38:52.622Z,9.711733
2022-10-05T08:39:52.605Z,9.711731
2022-10-05T08:40:52.610Z,9.711638
2022-10-05T08:41:52.599Z,9.711725
2022-10-05T08:42:52.678Z,9.711718
2022-10-05T08:43:52.586Z,9.711715
2022-10-05T08:44:52.567Z,9.711731
2022-10-05T08:45:52.592Z,9.711704
2022-10-05T08:46:52.558Z,9.711726
2022-10-05T08:47:52.546Z,9.711682
2022-10-05T08:48:52.562Z,9.711656
2022-10-05T08:49:52.534Z,9.711647
2022-10-05T08:50:52.518Z,9.711624
2022-10-05T08:51:52.524Z,9.711673
2022-10-05T08:52:52.506Z,9.711695
2022-10-05T08:53:52.502Z,9.711755
2022-10-05T08:54:52.485Z,9.711772
2022-10-05T08:55:52.476Z,9.711722
2022-10-05T08:56:52.474Z,9.711808
2022-10-05T08:57:52.466Z,9.711909
2022-10-05T08:58:52.461Z,9.711679
2022-10-05T08:59:53.440Z,9.712044
2022-10-05T09:00:52.457Z,9.711778
2022-10-05T09:01:52.470Z,9.711638
2022-10-05T09:02:52.605Z,9.711950
2022-10-05T09:03:52.410Z,9.711868
2022-10-05T09:04:53.405Z,9.711807
2022-10-05T09:05:52.426Z,9.711841
2022-10-05T09:06:52.395Z,9.711874
2022-10-05T09:07:52.393Z,9.712046
2022-10-05T09:08:52.374Z,9.711997
2022-10-05T09:09:52.408Z,9.712017
2022-10-05T09:10:52.366Z,9.711785
2022-10-05T09:11:52.367Z,9.711883
2022-10-05T09:12:52.373Z,9.711905
2022-10-05T09:13:52.330Z,9.711704
2022-10-05T09:15:01.525Z,9.711816
2022-10-05T09:15:54.389Z,9.711620
2022-10-05T09:16:52.308Z,9.711622
2022-10-05T09:17:52.297Z,9.711617
2022-10-05T09:18:52.290Z,9.711695
2022-10-05T09:19:52.289Z,9.711764
2022-10-05T09:20:52.278Z,9.711688
2022-10-05T09:21:52.274Z,9.711518
2022-10-05T09:22:52.269Z,9.711594
2022-10-05T09:23:52.253Z,9.711727
2022-10-05T09:24:52.261Z,9.711652
2022-10-05T09:25:52.281Z,9.711576
2022-10-05T09:26:52.232Z,9.711694
2022-10-05T09:27:52.225Z,9.711763
2022-10-05T09:28:52.225Z,9.711715
2022-10-05T09:29:52.220Z,9.711546
2022-10-05T09:30:52.230Z,9.711682
2022-10-05T09:31:52.230Z,9.711732
2022-10-05T09:32:52.183Z,9.711625
2022-10-05T09:33:52.543Z,9.711513
2022-10-05T09:34:52.164Z,9.711619
2022-10-05T09:35:52.151Z,9.711503
2022-10-05T09:36:52.161Z,9.711582
2022-10-05T09:37:52.162Z,9.711662
2022-10-05T09:38:52.139Z,9.711610
2022-10-05T09:39:52.122Z,9.711557
2022-10-05T09:40:52.110Z,9.711648
2022-10-05T09:41:52.104Z,9.711682
2022-10-05T09:42:52.752Z,9.711630
2022-10-05T09:43:52.084Z,9.711692
2022-10-05T09:44:52.074Z,9.711694
2022-10-05T09:45:52.131Z,9.712098
2022-10-05T09:46:52.066Z,9.711921
2022-10-05T09:47:52.069Z,9.711957
2022-10-05T09:48:52.048Z,9.712052
2022-10-05T09:49:52.029Z,9.711965
2022-10-05T09:50:52.030Z,9.711896
2022-10-05T09:51:52.030Z,9.711830
2022-10-05T09:52:52.013Z,9.711700
2022-10-05T09:53:52.005Z,9.711707
2022-10-05T09:54:51.994Z,9.711921
2022-10-05T09:55:52.001Z,9.712002
2022-10-05T09:56:51.977Z,9.711928
2022-10-05T09:57:53.250Z,9.711998
2022-10-05T09:58:52.964Z,9.711964
2022-10-05T09:59:51.962Z,9.711973
2022-10-05T10:00:59.469Z,9.712059
2022-10-05T10:01:53.280Z,9.711959
2022-10-05T10:02:52.058Z,9.712002
2022-10-05T10:03:51.949Z,9.712263
2022-10-05T10:04:51.914Z,9.712426
2022-10-05T10:05:51.933Z,9.712063
2022-10-05T10:06:51.901Z,9.711708
2022-10-05T10:07:51.893Z,9.711185
2022-10-05T10:08:51.896Z,9.711758
2022-10-05T10:09:51.883Z,9.711818
2022-10-05T10:10:51.869Z,9.711577
2022-10-05T10:11:51.874Z,9.711377
2022-10-05T10:12:51.850Z,9.711413
2022-10-05T10:13:51.843Z,9.711254
2022-10-05T10:14:51.839Z,9.711154
2022-10-05T10:15:51.894Z,9.711418
2022-10-05T10:16:51.812Z,9.711427
2022-10-05T10:17:51.807Z,9.711426
2022-10-05T10:18:51.812Z,9.711455
2022-10-05T10:19:51.806Z,9.711434
2022-10-05T10:20:51.791Z,9.711474
2022-10-05T10:21:51.788Z,9.711535
2022-10-05T10:22:51.774Z,9.711333
2022-10-05T10:23:51.797Z,9.711317
2022-10-05T10:24:51.762Z,9.711433
2022-10-05T10:25:51.741Z,9.711347
2022-10-05T10:26:51.752Z,9.711492
2022-10-05T10:27:52.548Z,9.711411
2022-10-05T10:28:52.731Z,9.711463
2022-10-05T10:29:51.721Z,9.711415
2022-10-05T10:30:51.771Z,9.711351
2022-10-05T10:31:51.704Z,9.711318
2022-10-05T10:32:51.695Z,9.711540
2022-10-05T10:33:51.694Z,9.711602
2022-10-05T10:34:51.672Z,9.711625
2022-10-05T10:35:51.689Z,9.711666
2022-10-05T10:36:51.914Z,9.711644
2022-10-05T10:37:54.559Z,9.711664
2022-10-05T10:38:51.649Z,9.711542
2022-10-05T10:39:51.635Z,9.711553
2022-10-05T10:40:51.639Z,9.711578
2022-10-05T10:41:51.612Z,9.711676
2022-10-05T10:42:51.621Z,9.711657
2022-10-05T10:43:52.347Z,9.711617
2022-10-05T10:44:51.605Z,9.711557
2022-10-05T10:45:52.321Z,9.711485
2022-10-05T10:46:52.145Z,9.711483
2022-10-05T10:47:51.918Z,9.711622
2022-10-05T10:48:51.562Z,9.711621
2022-10-05T10:49:52.483Z,9.711565
2022-10-05T10:50:51.563Z,9.711568
2022-10-05T10:51:51.552Z,9.711621
2022-10-05T10:52:51.533Z,9.711723
2022-10-05T10:53:53.321Z,9.711662
2022-10-05T10:54:51.515Z,9.711598
2022-10-05T10:55:52.427Z,9.711848
2022-10-05T10:56:51.967Z,9.711841
2022-10-05T10:57:51.490Z,9.711782
2022-10-05T10:58:51.485Z,9.711744
2022-10-05T10:59:51.467Z,9.711887
2022-10-05T11:00:52.475Z,9.711791
2022-10-05T11:01:51.963Z,9.711598
2022-10-05T11:02:51.548Z,9.711879
2022-10-05T11:03:51.448Z,9.711785
2022-10-05T11:04:51.443Z,9.711765
2022-10-05T11:05:51.432Z,9.711555
2022-10-05T11:06:51.433Z,9.711707
2022-10-05T11:07:51.422Z,9.711632
2022-10-05T11:08:51.440Z,9.711549
2022-10-05T11:09:51.462Z,9.711736
2022-10-05T11:10:51.393Z,9.711668
2022-10-05T11:11:51.788Z,9.711776
2022-10-05T11:12:51.407Z,9.711781
2022-10-05T11:13:51.359Z,9.711733
2022-10-05T11:14:53.338Z,9.711699
2022-10-05T11:15:51.469Z,9.711809
2022-10-05T11:16:51.661Z,9.711795
2022-10-05T11:17:51.337Z,9.711758
2022-10-05T11:25:59.282Z,9.712181
2022-10-05T11:26:59.259Z,9.712519
2022-10-05T11:27:59.334Z,9.712449
2022-10-05T11:28:59.248Z,9.712565
2022-10-05T11:29:59.233Z,9.712682
2022-10-05T11:30:59.284Z,9.712498
2022-10-05T11:31:59.248Z,9.712494
2022-10-05T11:32:59.215Z,9.712514
2022-10-05T11:33:59.194Z,9.712451
2022-10-05T11:34:59.187Z,9.712451
2022-10-05T11:35:59.194Z,9.712411
2022-10-05T11:36:59.211Z,9.712284
2022-10-05T11:37:59.163Z,9.712299
2022-10-05T11:38:59.173Z,9.712411
2022-10-05T11:39:59.144Z,9.712411
2022-10-05T11:40:59.138Z,9.712411
2022-10-05T11:41:59.146Z,9.712651
2022-10-05T11:42:59.126Z,9.712807
2022-10-05T11:44:03.259Z,9.712419
2022-10-05T11:45:00.122Z,9.712483
2022-10-05T11:46:00.638Z,9.711849
2022-10-05T11:47:00.092Z,9.711799
2022-10-05T11:47:59.657Z,9.711710
2022-10-05T11:48:59.088Z,9.711620
2022-10-05T11:49:59.071Z,9.711687
2022-10-05T11:50:59.060Z,9.711589
2022-10-05T11:51:59.056Z,9.711546
2022-10-05T11:52:59.047Z,9.711564
2022-10-05T11:53:59.030Z,9.711478
2022-10-05T11:55:10.255Z,9.711512
2022-10-05T11:56:01.025Z,9.711573
2022-10-05T11:56:59.297Z,9.711592
2022-10-05T11:57:59.009Z,9.711578
2022-10-05T11:58:58.997Z,9.711596
2022-10-05T11:59:58.987Z,9.711519
2022-10-05T12:00:58.979Z,9.711514
2022-10-05T12:01:59.587Z,9.711524
2022-10-05T12:02:59.075Z,9.711591
2022-10-05T12:03:59.119Z,9.711572
2022-10-05T12:04:58.954Z,9.711575
2022-10-05T12:05:58.944Z,9.711609
2022-10-05T12:06:58.966Z,9.711668
2022-10-05T12:07:59.669Z,9.711729
2022-10-05T12:08:58.937Z,9.711638
2022-10-05T12:09:58.953Z,9.711666
2022-10-05T12:10:58.914Z,9.711739
2022-10-05T12:11:58.929Z,9.711717
2022-10-05T12:12:59.079Z,9.711723
2022-10-05T12:13:58.891Z,9.711653
2022-10-05T12:14:58.914Z,9.711613
2022-10-05T12:15:58.921Z,9.711718
2022-10-05T12:16:58.896Z,9.711720
2022-10-05T12:17:58.849Z,9.711714
2022-10-05T12:19:00.599Z,9.711728
2022-10-05T12:19:59.675Z,9.711702
2022-10-05T12:20:58.831Z,9.711732
2022-10-05T12:22:31.615Z,9.711740
2022-10-05T12:22:59.035Z,9.711695
2022-10-05T12:23:58.805Z,9.711713
2022-10-05T12:24:58.823Z,9.711646
2022-10-05T12:25:58.789Z,9.711679
2022-10-05T12:27:01.713Z,9.711631
2022-10-05T12:27:58.838Z,9.711661
2022-10-05T12:28:58.771Z,9.711599